sensor_id;sensor_type;location;lat;lon;timestamp;P1;durP1;ratioP1;P2;durP2;ratioP2
47882;SDS011;37739;50.350;7.578;2023-09-19T00:02:16;2.73;;;1.43;;
47882;SDS011;37739;50.350;7.578;2023-09-19T00:04:44;2.40;;;1.43;;
47882;SDS011;37739;50.350;7.578;2023-09-19T00:07:12;2.40;;;1.70;;
47882;SDS011;37739;50.350;7.578;2023-09-19T00:09:38;2.60;;;1.60;;
47882;SDS011;37739;50.350;7.578;2023-09-19T00:12:07;2.30;;;1.63;;
47882;SDS011;37739;50.350;7.578;2023-09-19T00:14:50;4.60;;;1.50;;
47882;SDS011;37739;50.350;7.578;2023-09-19T00:17:16;2.40;;;1.77;;
47882;SDS011;37739;50.350;7.578;2023-09-19T00:19:41;2.40;;;1.93;;
47882;SDS011;37739;50.350;7.578;2023-09-19T00:22:07;2.20;;;1.87;;
47882;SDS011;37739;50.350;7.578;2023-09-19T00:24:44;2.60;;;1.60;;
47882;SDS011;37739;50.350;7.578;2023-09-19T00:27:13;1.87;;;1.40;;
47882;SDS011;37739;50.350;7.578;2023-09-19T00:29:44;2.93;;;1.70;;
47882;SDS011;37739;50.350;7.578;2023-09-19T00:32:13;2.80;;;1.63;;
47882;SDS011;37739;50.350;7.578;2023-09-19T00:34:41;2.17;;;1.57;;
47882;SDS011;37739;50.350;7.578;2023-09-19T00:37:09;1.30;;;1.07;;
47882;SDS011;37739;50.350;7.578;2023-09-19T00:39:51;2.10;;;1.80;;
47882;SDS011;37739;50.350;7.578;2023-09-19T00:42:25;2.40;;;1.40;;
47882;SDS011;37739;50.350;7.578;2023-09-19T00:44:57;1.97;;;1.43;;
47882;SDS011;37739;50.350;7.578;2023-09-19T00:47:28;2.33;;;1.60;;
47882;SDS011;37739;50.350;7.578;2023-09-19T00:50:03;1.90;;;1.57;;
47882;SDS011;37739;50.350;7.578;2023-09-19T00:52:33;3.37;;;1.63;;
47882;SDS011;37739;50.350;7.578;2023-09-19T00:55:13;3.20;;;1.47;;
47882;SDS011;37739;50.350;7.578;2023-09-19T00:57:47;2.73;;;1.40;;
47882;SDS011;37739;50.350;7.578;2023-09-19T01:00:21;2.10;;;1.60;;
47882;SDS011;37739;50.350;7.578;2023-09-19T01:03:11;2.00;;;1.60;;
47882;SDS011;37739;50.350;7.578;2023-09-19T01:05:38;2.80;;;1.57;;
47882;SDS011;37739;50.350;7.578;2023-09-19T01:08:11;3.23;;;1.70;;
47882;SDS011;37739;50.350;7.578;2023-09-19T01:10:41;1.93;;;1.57;;
47882;SDS011;37739;50.350;7.578;2023-09-19T01:31:45;1.23;;;0.70;;
47882;SDS011;37739;50.350;7.578;2023-09-19T01:34:12;2.77;;;1.40;;
47882;SDS011;37739;50.350;7.578;2023-09-19T01:36:43;3.60;;;1.50;;
47882;SDS011;37739;50.350;7.578;2023-09-19T01:39:13;2.50;;;1.60;;
47882;SDS011;37739;50.350;7.578;2023-09-19T01:52:43;2.37;;;1.40;;
47882;SDS011;37739;50.350;7.578;2023-09-19T01:58:52;2.37;;;1.30;;
47882;SDS011;37739;50.350;7.578;2023-09-19T02:01:54;1.83;;;1.40;;
47882;SDS011;37739;50.350;7.578;2023-09-19T02:04:21;4.10;;;1.50;;
47882;SDS011;37739;50.350;7.578;2023-09-19T02:06:52;1.60;;;1.20;;
47882;SDS011;37739;50.350;7.578;2023-09-19T02:09:27;1.87;;;1.30;;
47882;SDS011;37739;50.350;7.578;2023-09-19T02:11:52;2.40;;;1.70;;
47882;SDS011;37739;50.350;7.578;2023-09-19T02:14:17;2.60;;;1.63;;
47882;SDS011;37739;50.350;7.578;2023-09-19T02:16:55;2.33;;;1.70;;
47882;SDS011;37739;50.350;7.578;2023-09-19T02:19:32;3.67;;;1.50;;
47882;SDS011;37739;50.350;7.578;2023-09-19T02:22:13;1.50;;;1.27;;
47882;SDS011;37739;50.350;7.578;2023-09-19T02:24:42;2.43;;;1.20;;
47882;SDS011;37739;50.350;7.578;2023-09-19T02:27:07;2.30;;;1.23;;
47882;SDS011;37739;50.350;7.578;2023-09-19T02:29:36;2.17;;;1.13;;
47882;SDS011;37739;50.350;7.578;2023-09-19T02:32:27;2.73;;;1.20;;
47882;SDS011;37739;50.350;7.578;2023-09-19T02:34:52;3.30;;;1.20;;
47882;SDS011;37739;50.350;7.578;2023-09-19T02:37:18;2.40;;;1.33;;
47882;SDS011;37739;50.350;7.578;2023-09-19T02:39:53;2.13;;;1.20;;
47882;SDS011;37739;50.350;7.578;2023-09-19T02:42:19;2.57;;;1.50;;
47882;SDS011;37739;50.350;7.578;2023-09-19T02:44:44;2.40;;;1.30;;
47882;SDS011;37739;50.350;7.578;2023-09-19T02:47:17;2.60;;;1.37;;
47882;SDS011;37739;50.350;7.578;2023-09-19T02:49:44;2.73;;;1.17;;
47882;SDS011;37739;50.350;7.578;2023-09-19T02:52:15;2.10;;;1.50;;
47882;SDS011;37739;50.350;7.578;2023-09-19T02:54:43;2.10;;;1.30;;
47882;SDS011;37739;50.350;7.578;2023-09-19T02:57:12;2.77;;;1.50;;
47882;SDS011;37739;50.350;7.578;2023-09-19T02:59:45;3.10;;;1.40;;
47882;SDS011;37739;50.350;7.578;2023-09-19T03:02:10;4.03;;;1.50;;
47882;SDS011;37739;50.350;7.578;2023-09-19T03:05:01;2.57;;;1.27;;
47882;SDS011;37739;50.350;7.578;2023-09-19T03:07:37;2.27;;;1.30;;
47882;SDS011;37739;50.350;7.578;2023-09-19T03:10:03;3.77;;;1.53;;
47882;SDS011;37739;50.350;7.578;2023-09-19T03:12:30;2.80;;;1.43;;
47882;SDS011;37739;50.350;7.578;2023-09-19T03:14:56;3.30;;;1.63;;
47882;SDS011;37739;50.350;7.578;2023-09-19T03:17:22;3.83;;;1.70;;
47882;SDS011;37739;50.350;7.578;2023-09-19T03:20:11;3.50;;;1.93;;
47882;SDS011;37739;50.350;7.578;2023-09-19T03:22:41;3.27;;;1.60;;
47882;SDS011;37739;50.350;7.578;2023-09-19T03:25:23;2.10;;;1.10;;
47882;SDS011;37739;50.350;7.578;2023-09-19T03:27:59;3.10;;;1.50;;
47882;SDS011;37739;50.350;7.578;2023-09-19T03:30:25;2.67;;;1.70;;
47882;SDS011;37739;50.350;7.578;2023-09-19T03:32:51;2.60;;;1.30;;
47882;SDS011;37739;50.350;7.578;2023-09-19T03:35:25;3.07;;;1.77;;
47882;SDS011;37739;50.350;7.578;2023-09-19T03:37:57;2.40;;;1.33;;
47882;SDS011;37739;50.350;7.578;2023-09-19T03:40:24;3.00;;;1.43;;
47882;SDS011;37739;50.350;7.578;2023-09-19T03:43:00;4.70;;;2.10;;
47882;SDS011;37739;50.350;7.578;2023-09-19T03:45:33;2.63;;;1.50;;
47882;SDS011;37739;50.350;7.578;2023-09-19T03:48:08;2.63;;;1.43;;
47882;SDS011;37739;50.350;7.578;2023-09-19T03:50:44;2.70;;;1.30;;
47882;SDS011;37739;50.350;7.578;2023-09-19T03:53:17;2.30;;;1.40;;
47882;SDS011;37739;50.350;7.578;2023-09-19T03:55:44;2.40;;;1.57;;
47882;SDS011;37739;50.350;7.578;2023-09-19T03:58:16;2.30;;;1.57;;
47882;SDS011;37739;50.350;7.578;2023-09-19T04:00:44;1.60;;;1.30;;
47882;SDS011;37739;50.350;7.578;2023-09-19T04:03:09;2.97;;;1.37;;
47882;SDS011;37739;50.350;7.578;2023-09-19T04:05:43;2.30;;;1.30;;
47882;SDS011;37739;50.350;7.578;2023-09-19T04:08:14;4.20;;;1.90;;
47882;SDS011;37739;50.350;7.578;2023-09-19T04:10:47;2.20;;;1.57;;
47882;SDS011;37739;50.350;7.578;2023-09-19T04:13:12;3.83;;;1.60;;
47882;SDS011;37739;50.350;7.578;2023-09-19T04:15:41;3.20;;;1.70;;
47882;SDS011;37739;50.350;7.578;2023-09-19T04:18:09;2.13;;;1.40;;
47882;SDS011;37739;50.350;7.578;2023-09-19T04:20:37;2.37;;;1.40;;
47882;SDS011;37739;50.350;7.578;2023-09-19T04:23:19;1.60;;;0.93;;
47882;SDS011;37739;50.350;7.578;2023-09-19T04:25:59;1.90;;;1.50;;
47882;SDS011;37739;50.350;7.578;2023-09-19T04:28:27;2.90;;;1.50;;
47882;SDS011;37739;50.350;7.578;2023-09-19T04:31:05;2.63;;;1.60;;
47882;SDS011;37739;50.350;7.578;2023-09-19T04:33:41;3.50;;;1.73;;
47882;SDS011;37739;50.350;7.578;2023-09-19T04:36:09;3.13;;;1.40;;
47882;SDS011;37739;50.350;7.578;2023-09-19T04:38:34;3.03;;;1.80;;
47882;SDS011;37739;50.350;7.578;2023-09-19T04:41:02;3.13;;;1.60;;
47882;SDS011;37739;50.350;7.578;2023-09-19T04:46:34;3.93;;;1.53;;
47882;SDS011;37739;50.350;7.578;2023-09-19T04:48:59;3.63;;;2.07;;
47882;SDS011;37739;50.350;7.578;2023-09-19T04:51:38;2.83;;;1.63;;
47882;SDS011;37739;50.350;7.578;2023-09-19T04:54:10;3.00;;;1.20;;
47882;SDS011;37739;50.350;7.578;2023-09-19T04:56:45;4.80;;;1.90;;
47882;SDS011;37739;50.350;7.578;2023-09-19T04:59:16;2.90;;;1.90;;
47882;SDS011;37739;50.350;7.578;2023-09-19T05:01:44;3.03;;;1.53;;
47882;SDS011;37739;50.350;7.578;2023-09-19T05:07:02;2.47;;;1.60;;
47882;SDS011;37739;50.350;7.578;2023-09-19T05:09:32;2.13;;;1.23;;
47882;SDS011;37739;50.350;7.578;2023-09-19T05:11:59;1.80;;;1.50;;
47882;SDS011;37739;50.350;7.578;2023-09-19T05:14:31;3.30;;;1.60;;
47882;SDS011;37739;50.350;7.578;2023-09-19T05:17:06;3.97;;;1.77;;
47882;SDS011;37739;50.350;7.578;2023-09-19T05:19:32;3.80;;;1.43;;
47882;SDS011;37739;50.350;7.578;2023-09-19T05:22:10;1.87;;;1.23;;
47882;SDS011;37739;50.350;7.578;2023-09-19T05:24:44;1.93;;;1.33;;
47882;SDS011;37739;50.350;7.578;2023-09-19T05:27:29;2.47;;;1.37;;
47882;SDS011;37739;50.350;7.578;2023-09-19T05:29:56;3.50;;;1.57;;
47882;SDS011;37739;50.350;7.578;2023-09-19T05:32:24;3.77;;;1.70;;
47882;SDS011;37739;50.350;7.578;2023-09-19T05:34:50;2.63;;;1.50;;
47882;SDS011;37739;50.350;7.578;2023-09-19T05:37:22;3.23;;;1.63;;
47882;SDS011;37739;50.350;7.578;2023-09-19T05:39:51;2.90;;;1.90;;
47882;SDS011;37739;50.350;7.578;2023-09-19T05:42:24;2.90;;;1.60;;
47882;SDS011;37739;50.350;7.578;2023-09-19T05:44:53;4.47;;;1.90;;
47882;SDS011;37739;50.350;7.578;2023-09-19T05:47:24;3.70;;;2.63;;
47882;SDS011;37739;50.350;7.578;2023-09-19T05:49:50;3.60;;;1.90;;
47882;SDS011;37739;50.350;7.578;2023-09-19T05:52:22;6.30;;;2.43;;
47882;SDS011;37739;50.350;7.578;2023-09-19T05:54:51;4.30;;;1.70;;
47882;SDS011;37739;50.350;7.578;2023-09-19T05:57:19;2.90;;;1.63;;
47882;SDS011;37739;50.350;7.578;2023-09-19T05:59:45;2.50;;;1.90;;
47882;SDS011;37739;50.350;7.578;2023-09-19T06:02:37;3.53;;;1.63;;
47882;SDS011;37739;50.350;7.578;2023-09-19T06:05:11;3.43;;;1.80;;
47882;SDS011;37739;50.350;7.578;2023-09-19T06:07:39;4.27;;;1.83;;
47882;SDS011;37739;50.350;7.578;2023-09-19T06:10:08;2.90;;;1.33;;
47882;SDS011;37739;50.350;7.578;2023-09-19T06:12:38;2.37;;;1.27;;
47882;SDS011;37739;50.350;7.578;2023-09-19T06:15:22;4.27;;;1.50;;
47882;SDS011;37739;50.350;7.578;2023-09-19T06:18:03;2.67;;;1.60;;
47882;SDS011;37739;50.350;7.578;2023-09-19T06:20:37;2.70;;;1.43;;
47882;SDS011;37739;50.350;7.578;2023-09-19T06:23:02;3.60;;;1.37;;
47882;SDS011;37739;50.350;7.578;2023-09-19T06:25:30;3.30;;;1.67;;
47882;SDS011;37739;50.350;7.578;2023-09-19T06:28:09;4.00;;;1.57;;
47882;SDS011;37739;50.350;7.578;2023-09-19T06:30:37;5.20;;;2.00;;
47882;SDS011;37739;50.350;7.578;2023-09-19T06:33:20;3.23;;;1.30;;
47882;SDS011;37739;50.350;7.578;2023-09-19T06:45:25;3.13;;;1.40;;
47882;SDS011;37739;50.350;7.578;2023-09-19T06:47:51;2.43;;;1.27;;
47882;SDS011;37739;50.350;7.578;2023-09-19T06:53:15;3.83;;;1.80;;
47882;SDS011;37739;50.350;7.578;2023-09-19T07:04:16;4.77;;;2.20;;
47882;SDS011;37739;50.350;7.578;2023-09-19T07:06:44;3.53;;;1.97;;
47882;SDS011;37739;50.350;7.578;2023-09-19T07:09:14;9.50;;;2.03;;
47882;SDS011;37739;50.350;7.578;2023-09-19T07:11:40;4.90;;;2.10;;
47882;SDS011;37739;50.350;7.578;2023-09-19T07:14:05;3.17;;;1.93;;
47882;SDS011;37739;50.350;7.578;2023-09-19T07:16:30;7.47;;;2.27;;
47882;SDS011;37739;50.350;7.578;2023-09-19T07:18:56;3.10;;;1.67;;
47882;SDS011;37739;50.350;7.578;2023-09-19T07:21:23;4.57;;;2.00;;
47882;SDS011;37739;50.350;7.578;2023-09-19T07:23:53;5.63;;;1.70;;
47882;SDS011;37739;50.350;7.578;2023-09-19T07:26:18;5.13;;;1.53;;
47882;SDS011;37739;50.350;7.578;2023-09-19T07:28:44;4.10;;;1.80;;
47882;SDS011;37739;50.350;7.578;2023-09-19T07:31:11;4.40;;;2.00;;
47882;SDS011;37739;50.350;7.578;2023-09-19T07:33:39;3.70;;;1.73;;
47882;SDS011;37739;50.350;7.578;2023-09-19T07:36:05;5.90;;;2.30;;
47882;SDS011;37739;50.350;7.578;2023-09-19T07:38:31;5.40;;;1.90;;
47882;SDS011;37739;50.350;7.578;2023-09-19T07:41:01;5.57;;;2.30;;
47882;SDS011;37739;50.350;7.578;2023-09-19T07:43:30;4.70;;;1.60;;
47882;SDS011;37739;50.350;7.578;2023-09-19T07:45:56;6.43;;;1.70;;
47882;SDS011;37739;50.350;7.578;2023-09-19T07:48:31;4.37;;;1.90;;
47882;SDS011;37739;50.350;7.578;2023-09-19T07:50:56;4.27;;;2.27;;
47882;SDS011;37739;50.350;7.578;2023-09-19T07:53:29;6.20;;;2.37;;
47882;SDS011;37739;50.350;7.578;2023-09-19T07:56:01;7.20;;;2.17;;
47882;SDS011;37739;50.350;7.578;2023-09-19T07:58:29;3.40;;;1.90;;
47882;SDS011;37739;50.350;7.578;2023-09-19T08:00:54;6.33;;;1.80;;
47882;SDS011;37739;50.350;7.578;2023-09-19T08:03:29;5.43;;;1.97;;
47882;SDS011;37739;50.350;7.578;2023-09-19T08:05:55;3.60;;;1.93;;
47882;SDS011;37739;50.350;7.578;2023-09-19T08:08:22;3.20;;;2.00;;
47882;SDS011;37739;50.350;7.578;2023-09-19T08:10:54;4.10;;;1.70;;
47882;SDS011;37739;50.350;7.578;2023-09-19T08:13:26;3.50;;;1.80;;
47882;SDS011;37739;50.350;7.578;2023-09-19T08:15:56;2.80;;;1.70;;
47882;SDS011;37739;50.350;7.578;2023-09-19T08:18:21;4.57;;;2.03;;
47882;SDS011;37739;50.350;7.578;2023-09-19T08:20:50;5.40;;;2.03;;
47882;SDS011;37739;50.350;7.578;2023-09-19T08:23:17;7.80;;;1.90;;
47882;SDS011;37739;50.350;7.578;2023-09-19T08:25:47;7.37;;;2.30;;
47882;SDS011;37739;50.350;7.578;2023-09-19T08:28:15;4.10;;;1.80;;
47882;SDS011;37739;50.350;7.578;2023-09-19T08:30:44;5.90;;;1.70;;
47882;SDS011;37739;50.350;7.578;2023-09-19T08:33:10;6.30;;;2.20;;
47882;SDS011;37739;50.350;7.578;2023-09-19T08:35:38;4.47;;;2.07;;
47882;SDS011;37739;50.350;7.578;2023-09-19T08:38:05;4.60;;;2.10;;
47882;SDS011;37739;50.350;7.578;2023-09-19T08:40:36;5.50;;;2.17;;
47882;SDS011;37739;50.350;7.578;2023-09-19T08:43:04;5.03;;;1.90;;
47882;SDS011;37739;50.350;7.578;2023-09-19T08:45:30;2.93;;;1.60;;
47882;SDS011;37739;50.350;7.578;2023-09-19T08:48:22;4.50;;;2.07;;
47882;SDS011;37739;50.350;7.578;2023-09-19T08:50:49;4.40;;;1.90;;
47882;SDS011;37739;50.350;7.578;2023-09-19T08:53:23;3.30;;;1.90;;
47882;SDS011;37739;50.350;7.578;2023-09-19T08:55:57;5.80;;;2.30;;
47882;SDS011;37739;50.350;7.578;2023-09-19T08:58:31;4.50;;;1.90;;
47882;SDS011;37739;50.350;7.578;2023-09-19T09:01:01;4.00;;;2.00;;
47882;SDS011;37739;50.350;7.578;2023-09-19T09:03:29;5.43;;;1.97;;
47882;SDS011;37739;50.350;7.578;2023-09-19T09:05:58;3.90;;;1.83;;
47882;SDS011;37739;50.350;7.578;2023-09-19T09:08:26;3.53;;;1.67;;
47882;SDS011;37739;50.350;7.578;2023-09-19T09:10:57;3.33;;;1.57;;
47882;SDS011;37739;50.350;7.578;2023-09-19T09:13:28;4.40;;;1.77;;
47882;SDS011;37739;50.350;7.578;2023-09-19T09:15:57;3.53;;;1.70;;
47882;SDS011;37739;50.350;7.578;2023-09-19T09:18:24;4.60;;;1.90;;
47882;SDS011;37739;50.350;7.578;2023-09-19T09:20:49;5.17;;;2.03;;
47882;SDS011;37739;50.350;7.578;2023-09-19T09:23:14;3.93;;;1.83;;
47882;SDS011;37739;50.350;7.578;2023-09-19T09:25:47;4.07;;;1.77;;
47882;SDS011;37739;50.350;7.578;2023-09-19T09:28:28;3.73;;;1.77;;
47882;SDS011;37739;50.350;7.578;2023-09-19T09:30:55;3.57;;;2.00;;
47882;SDS011;37739;50.350;7.578;2023-09-19T09:33:27;3.20;;;1.80;;
47882;SDS011;37739;50.350;7.578;2023-09-19T09:36:00;4.03;;;1.70;;
47882;SDS011;37739;50.350;7.578;2023-09-19T09:38:28;4.80;;;2.10;;
47882;SDS011;37739;50.350;7.578;2023-09-19T09:41:17;3.40;;;1.67;;
47882;SDS011;37739;50.350;7.578;2023-09-19T09:43:52;6.13;;;1.97;;
47882;SDS011;37739;50.350;7.578;2023-09-19T09:46:19;3.30;;;2.17;;
47882;SDS011;37739;50.350;7.578;2023-09-19T09:48:47;3.50;;;1.90;;
47882;SDS011;37739;50.350;7.578;2023-09-19T09:51:29;4.77;;;2.13;;
47882;SDS011;37739;50.350;7.578;2023-09-19T09:54:09;6.23;;;2.10;;
47882;SDS011;37739;50.350;7.578;2023-09-19T09:56:58;3.83;;;1.70;;
47882;SDS011;37739;50.350;7.578;2023-09-19T09:59:45;4.73;;;2.00;;
47882;SDS011;37739;50.350;7.578;2023-09-19T10:02:24;3.93;;;1.83;;
47882;SDS011;37739;50.350;7.578;2023-09-19T10:05:18;5.03;;;2.30;;
47882;SDS011;37739;50.350;7.578;2023-09-19T10:07:45;4.87;;;1.97;;
47882;SDS011;37739;50.350;7.578;2023-09-19T10:13:11;3.60;;;1.73;;
47882;SDS011;37739;50.350;7.578;2023-09-19T10:15:43;5.77;;;2.17;;
47882;SDS011;37739;50.350;7.578;2023-09-19T10:18:25;5.50;;;2.20;;
47882;SDS011;37739;50.350;7.578;2023-09-19T10:20:53;5.03;;;1.83;;
47882;SDS011;37739;50.350;7.578;2023-09-19T10:23:20;6.70;;;2.00;;
47882;SDS011;37739;50.350;7.578;2023-09-19T10:25:52;7.20;;;2.10;;
47882;SDS011;37739;50.350;7.578;2023-09-19T10:28:19;4.63;;;2.10;;
47882;SDS011;37739;50.350;7.578;2023-09-19T10:30:48;4.43;;;2.17;;
47882;SDS011;37739;50.350;7.578;2023-09-19T10:33:21;5.47;;;2.20;;
47882;SDS011;37739;50.350;7.578;2023-09-19T10:35:54;4.23;;;1.97;;
47882;SDS011;37739;50.350;7.578;2023-09-19T10:38:25;3.80;;;1.60;;
47882;SDS011;37739;50.350;7.578;2023-09-19T10:40:56;7.93;;;2.47;;
47882;SDS011;37739;50.350;7.578;2023-09-19T10:43:25;4.97;;;1.93;;
47882;SDS011;37739;50.350;7.578;2023-09-19T10:46:00;5.47;;;2.40;;
47882;SDS011;37739;50.350;7.578;2023-09-19T10:48:31;4.23;;;1.77;;
47882;SDS011;37739;50.350;7.578;2023-09-19T10:53:24;3.93;;;1.90;;
47882;SDS011;37739;50.350;7.578;2023-09-19T10:55:55;5.00;;;1.77;;
47882;SDS011;37739;50.350;7.578;2023-09-19T10:58:28;3.73;;;1.60;;
47882;SDS011;37739;50.350;7.578;2023-09-19T11:00:59;4.67;;;1.97;;
47882;SDS011;37739;50.350;7.578;2023-09-19T11:03:31;4.60;;;1.63;;
47882;SDS011;37739;50.350;7.578;2023-09-19T11:08:53;5.70;;;2.10;;
47882;SDS011;37739;50.350;7.578;2023-09-19T11:33:15;2.73;;;1.33;;
47882;SDS011;37739;50.350;7.578;2023-09-19T11:43:45;4.17;;;1.63;;
47882;SDS011;37739;50.350;7.578;2023-09-19T11:46:11;3.80;;;1.40;;
47882;SDS011;37739;50.350;7.578;2023-09-19T11:48:41;2.63;;;1.43;;
47882;SDS011;37739;50.350;7.578;2023-09-19T11:51:12;3.07;;;1.33;;
47882;SDS011;37739;50.350;7.578;2023-09-19T11:53:47;4.23;;;1.63;;
47882;SDS011;37739;50.350;7.578;2023-09-19T11:56:16;3.20;;;1.90;;
47882;SDS011;37739;50.350;7.578;2023-09-19T11:58:46;2.50;;;1.33;;
47882;SDS011;37739;50.350;7.578;2023-09-19T12:01:22;3.87;;;1.70;;
47882;SDS011;37739;50.350;7.578;2023-09-19T12:03:54;4.20;;;1.50;;
47882;SDS011;37739;50.350;7.578;2023-09-19T12:06:25;2.70;;;1.50;;
47882;SDS011;37739;50.350;7.578;2023-09-19T12:08:51;2.93;;;1.30;;
47882;SDS011;37739;50.350;7.578;2023-09-19T12:11:26;3.27;;;1.73;;
47882;SDS011;37739;50.350;7.578;2023-09-19T12:13:53;4.23;;;1.57;;
47882;SDS011;37739;50.350;7.578;2023-09-19T12:16:23;4.80;;;1.80;;
47882;SDS011;37739;50.350;7.578;2023-09-19T12:18:49;4.37;;;1.43;;
47882;SDS011;37739;50.350;7.578;2023-09-19T12:26:30;4.57;;;1.60;;
47882;SDS011;37739;50.350;7.578;2023-09-19T12:29:10;2.90;;;1.43;;
47882;SDS011;37739;50.350;7.578;2023-09-19T12:31:46;2.70;;;1.40;;
47882;SDS011;37739;50.350;7.578;2023-09-19T12:34:25;3.13;;;1.30;;
47882;SDS011;37739;50.350;7.578;2023-09-19T12:39:48;4.43;;;1.90;;
47882;SDS011;37739;50.350;7.578;2023-09-19T12:42:16;2.03;;;1.30;;
47882;SDS011;37739;50.350;7.578;2023-09-19T12:44:46;4.00;;;1.40;;
47882;SDS011;37739;50.350;7.578;2023-09-19T12:47:22;2.93;;;1.43;;
47882;SDS011;37739;50.350;7.578;2023-09-19T12:52:49;2.67;;;1.60;;
47882;SDS011;37739;50.350;7.578;2023-09-19T12:55:21;3.63;;;1.30;;
47882;SDS011;37739;50.350;7.578;2023-09-19T13:00:42;3.23;;;1.53;;
47882;SDS011;37739;50.350;7.578;2023-09-19T13:05:53;2.70;;;1.30;;
47882;SDS011;37739;50.350;7.578;2023-09-19T13:08:24;3.10;;;1.30;;
47882;SDS011;37739;50.350;7.578;2023-09-19T13:11:07;3.37;;;1.40;;
47882;SDS011;37739;50.350;7.578;2023-09-19T13:13:40;5.27;;;1.60;;
47882;SDS011;37739;50.350;7.578;2023-09-19T13:16:06;3.87;;;1.57;;
47882;SDS011;37739;50.350;7.578;2023-09-19T13:18:44;2.10;;;1.33;;
47882;SDS011;37739;50.350;7.578;2023-09-19T13:21:12;3.30;;;1.60;;
47882;SDS011;37739;50.350;7.578;2023-09-19T13:23:52;2.23;;;1.40;;
47882;SDS011;37739;50.350;7.578;2023-09-19T13:26:27;3.13;;;1.33;;
47882;SDS011;37739;50.350;7.578;2023-09-19T13:28:53;2.40;;;1.50;;
47882;SDS011;37739;50.350;7.578;2023-09-19T13:31:21;5.83;;;1.70;;
47882;SDS011;37739;50.350;7.578;2023-09-19T13:33:48;2.23;;;1.27;;
47882;SDS011;37739;50.350;7.578;2023-09-19T13:36:17;2.70;;;1.33;;
47882;SDS011;37739;50.350;7.578;2023-09-19T13:38:44;3.07;;;1.20;;
47882;SDS011;37739;50.350;7.578;2023-09-19T13:41:11;4.10;;;1.20;;
47882;SDS011;37739;50.350;7.578;2023-09-19T13:43:41;4.17;;;1.60;;
47882;SDS011;37739;50.350;7.578;2023-09-19T13:46:13;2.87;;;1.43;;
47882;SDS011;37739;50.350;7.578;2023-09-19T13:48:40;2.30;;;1.20;;
47882;SDS011;37739;50.350;7.578;2023-09-19T13:51:08;2.60;;;1.50;;
47882;SDS011;37739;50.350;7.578;2023-09-19T13:53:33;2.50;;;1.50;;
47882;SDS011;37739;50.350;7.578;2023-09-19T13:56:01;3.17;;;1.30;;
47882;SDS011;37739;50.350;7.578;2023-09-19T13:58:29;2.73;;;1.33;;
47882;SDS011;37739;50.350;7.578;2023-09-19T14:00:58;3.00;;;1.50;;
47882;SDS011;37739;50.350;7.578;2023-09-19T14:03:25;2.40;;;1.07;;
47882;SDS011;37739;50.350;7.578;2023-09-19T14:05:53;3.63;;;1.70;;
47882;SDS011;37739;50.350;7.578;2023-09-19T14:08:21;1.77;;;1.10;;
47882;SDS011;37739;50.350;7.578;2023-09-19T14:10:48;2.43;;;1.50;;
47882;SDS011;37739;50.350;7.578;2023-09-19T14:13:18;2.93;;;1.10;;
47882;SDS011;37739;50.350;7.578;2023-09-19T14:15:45;2.40;;;1.30;;
47882;SDS011;37739;50.350;7.578;2023-09-19T14:18:10;3.57;;;1.37;;
47882;SDS011;37739;50.350;7.578;2023-09-19T14:20:37;4.47;;;1.60;;
47882;SDS011;37739;50.350;7.578;2023-09-19T14:23:05;3.30;;;1.37;;
47882;SDS011;37739;50.350;7.578;2023-09-19T14:25:35;2.07;;;1.20;;
47882;SDS011;37739;50.350;7.578;2023-09-19T14:28:01;2.40;;;1.33;;
47882;SDS011;37739;50.350;7.578;2023-09-19T14:30:26;2.10;;;1.10;;
47882;SDS011;37739;50.350;7.578;2023-09-19T14:32:52;3.20;;;1.40;;
47882;SDS011;37739;50.350;7.578;2023-09-19T14:35:20;2.33;;;1.30;;
47882;SDS011;37739;50.350;7.578;2023-09-19T14:37:48;2.20;;;1.60;;
47882;SDS011;37739;50.350;7.578;2023-09-19T14:40:13;3.67;;;1.73;;
47882;SDS011;37739;50.350;7.578;2023-09-19T14:42:40;1.80;;;1.10;;
47882;SDS011;37739;50.350;7.578;2023-09-19T14:45:08;2.57;;;1.20;;
47882;SDS011;37739;50.350;7.578;2023-09-19T14:47:34;2.20;;;1.10;;
47882;SDS011;37739;50.350;7.578;2023-09-19T14:50:02;2.67;;;1.50;;
47882;SDS011;37739;50.350;7.578;2023-09-19T14:52:31;2.20;;;1.00;;
47882;SDS011;37739;50.350;7.578;2023-09-19T14:55:00;2.70;;;1.20;;
47882;SDS011;37739;50.350;7.578;2023-09-19T14:57:26;2.80;;;1.67;;
47882;SDS011;37739;50.350;7.578;2023-09-19T14:59:54;3.93;;;1.30;;
47882;SDS011;37739;50.350;7.578;2023-09-19T15:02:22;4.07;;;1.50;;
47882;SDS011;37739;50.350;7.578;2023-09-19T15:04:47;2.47;;;1.13;;
47882;SDS011;37739;50.350;7.578;2023-09-19T15:07:15;1.83;;;1.10;;
47882;SDS011;37739;50.350;7.578;2023-09-19T15:09:41;1.83;;;1.10;;
47882;SDS011;37739;50.350;7.578;2023-09-19T15:12:06;2.83;;;1.20;;
47882;SDS011;37739;50.350;7.578;2023-09-19T15:14:34;2.20;;;1.20;;
47882;SDS011;37739;50.350;7.578;2023-09-19T15:16:59;3.97;;;1.70;;
47882;SDS011;37739;50.350;7.578;2023-09-19T15:19:28;2.73;;;1.20;;
47882;SDS011;37739;50.350;7.578;2023-09-19T15:21:53;1.90;;;1.00;;
47882;SDS011;37739;50.350;7.578;2023-09-19T15:24:18;2.87;;;1.00;;
47882;SDS011;37739;50.350;7.578;2023-09-19T15:26:45;2.50;;;1.17;;
47882;SDS011;37739;50.350;7.578;2023-09-19T15:29:12;1.80;;;1.30;;
47882;SDS011;37739;50.350;7.578;2023-09-19T15:31:38;2.20;;;1.37;;
47882;SDS011;37739;50.350;7.578;2023-09-19T15:34:04;3.40;;;1.33;;
47882;SDS011;37739;50.350;7.578;2023-09-19T15:36:32;1.17;;;0.87;;
47882;SDS011;37739;50.350;7.578;2023-09-19T15:39:05;2.93;;;1.20;;
47882;SDS011;37739;50.350;7.578;2023-09-19T15:41:39;2.43;;;1.27;;
47882;SDS011;37739;50.350;7.578;2023-09-19T15:44:13;2.77;;;1.27;;
47882;SDS011;37739;50.350;7.578;2023-09-19T15:46:43;2.33;;;1.20;;
47882;SDS011;37739;50.350;7.578;2023-09-19T15:49:09;2.60;;;1.03;;
47882;SDS011;37739;50.350;7.578;2023-09-19T15:51:37;2.47;;;1.30;;
47882;SDS011;37739;50.350;7.578;2023-09-19T15:54:13;1.67;;;0.90;;
47882;SDS011;37739;50.350;7.578;2023-09-19T15:56:39;2.00;;;1.03;;
47882;SDS011;37739;50.350;7.578;2023-09-19T15:59:08;2.40;;;1.33;;
47882;SDS011;37739;50.350;7.578;2023-09-19T16:01:34;2.10;;;1.03;;
47882;SDS011;37739;50.350;7.578;2023-09-19T16:04:02;2.60;;;1.20;;
47882;SDS011;37739;50.350;7.578;2023-09-19T16:06:28;2.83;;;1.23;;
47882;SDS011;37739;50.350;7.578;2023-09-19T16:08:56;1.87;;;1.00;;
47882;SDS011;37739;50.350;7.578;2023-09-19T16:11:23;1.80;;;1.03;;
47882;SDS011;37739;50.350;7.578;2023-09-19T16:13:52;3.20;;;1.23;;
47882;SDS011;37739;50.350;7.578;2023-09-19T16:16:19;2.43;;;1.10;;
47882;SDS011;37739;50.350;7.578;2023-09-19T16:21:25;3.13;;;1.30;;
47882;SDS011;37739;50.350;7.578;2023-09-19T16:23:54;2.30;;;1.10;;
47882;SDS011;37739;50.350;7.578;2023-09-19T16:26:21;1.50;;;0.80;;
47882;SDS011;37739;50.350;7.578;2023-09-19T16:28:49;2.00;;;1.00;;
47882;SDS011;37739;50.350;7.578;2023-09-19T16:31:18;1.73;;;1.00;;
47882;SDS011;37739;50.350;7.578;2023-09-19T16:33:45;3.57;;;1.30;;
47882;SDS011;37739;50.350;7.578;2023-09-19T16:36:13;2.70;;;1.10;;
47882;SDS011;37739;50.350;7.578;2023-09-19T16:38:40;1.57;;;0.87;;
47882;SDS011;37739;50.350;7.578;2023-09-19T16:41:07;2.03;;;0.83;;
47882;SDS011;37739;50.350;7.578;2023-09-19T16:43:33;1.73;;;1.00;;
47882;SDS011;37739;50.350;7.578;2023-09-19T16:46:02;2.20;;;1.40;;
47882;SDS011;37739;50.350;7.578;2023-09-19T16:48:29;2.60;;;1.20;;
47882;SDS011;37739;50.350;7.578;2023-09-19T16:50:58;3.00;;;1.30;;
47882;SDS011;37739;50.350;7.578;2023-09-19T16:53:27;2.77;;;1.10;;
47882;SDS011;37739;50.350;7.578;2023-09-19T16:55:52;3.10;;;1.17;;
47882;SDS011;37739;50.350;7.578;2023-09-19T16:58:18;1.77;;;0.90;;
47882;SDS011;37739;50.350;7.578;2023-09-19T17:00:45;3.80;;;0.93;;
47882;SDS011;37739;50.350;7.578;2023-09-19T17:03:12;2.77;;;1.20;;
47882;SDS011;37739;50.350;7.578;2023-09-19T17:05:37;1.60;;;1.00;;